createdAt,value
2023-04-01T00:01:28.163Z,4.30
2023-04-01T00:04:03.085Z,4.30
2023-04-01T00:06:35.247Z,4.50
2023-04-01T00:09:07.403Z,4.40
2023-04-01T00:11:39.574Z,5.30
2023-04-01T00:14:11.861Z,7.50
2023-04-01T00:16:44.341Z,7.60
2023-04-01T00:19:17.368Z,7.70
2023-04-01T00:21:49.471Z,9.00
2023-04-01T00:24:21.562Z,12.10
2023-04-01T00:26:53.596Z,8.70
2023-04-01T00:29:30.293Z,6.60
2023-04-01T00:32:02.482Z,5.80
2023-04-01T00:34:34.613Z,5.90
2023-04-01T00:37:06.993Z,5.00
2023-04-01T00:39:39.772Z,5.90
2023-04-01T00:42:13.378Z,3.60
2023-04-01T00:44:50.899Z,5.40
2023-04-01T00:47:24.490Z,3.90
2023-04-01T00:49:58.039Z,4.90
2023-04-01T00:52:30.564Z,4.50
2023-04-01T00:55:04.839Z,4.70
2023-04-01T00:57:40.239Z,4.60
2023-04-01T01:00:15.985Z,6.00
2023-04-01T01:02:50.195Z,5.30
2023-04-01T01:05:34.408Z,4.60
2023-04-01T01:08:20.428Z,5.60
2023-04-01T01:10:53.584Z,5.00
2023-04-01T01:13:33.471Z,6.40
2023-04-01T01:16:12.353Z,8.50
2023-04-01T01:18:52.036Z,6.00
2023-04-01T01:21:44.444Z,4.90
2023-04-01T01:24:44.380Z,4.20
2023-04-01T01:27:20.751Z,7.30
2023-04-01T01:30:19.459Z,6.10
2023-04-01T01:33:26.581Z,9.10
2023-04-01T01:36:01.912Z,7.80
2023-04-01T01:38:37.468Z,7.40
2023-04-01T01:41:12.247Z,7.80
2023-04-01T01:43:48.791Z,8.30
2023-04-01T01:46:25.782Z,8.20
2023-04-01T01:49:00.934Z,9.30
2023-04-01T01:51:33.965Z,7.90
2023-04-01T01:54:07.994Z,7.60
2023-04-01T01:56:40.939Z,6.90
2023-04-01T01:59:16.326Z,5.80
2023-04-01T02:01:52.236Z,6.30
2023-04-01T02:04:25.784Z,6.10
2023-04-01T02:07:04.556Z,4.90
2023-04-01T02:09:37.838Z,5.00
2023-04-01T02:12:12.049Z,4.80
2023-04-01T02:17:21.000Z,5.40
2023-04-01T02:19:55.920Z,6.50
2023-04-01T02:22:33.908Z,5.90
2023-04-01T02:25:10.508Z,6.50
2023-04-01T02:27:45.549Z,6.10
2023-04-01T02:30:19.479Z,6.00
2023-04-01T02:32:53.646Z,6.80
2023-04-01T02:35:27.168Z,5.60
2023-04-01T02:38:00.155Z,5.70
2023-04-01T02:40:42.733Z,6.60
2023-04-01T02:43:14.835Z,7.30
2023-04-01T02:45:47.166Z,7.30
2023-04-01T02:48:19.207Z,6.10
2023-04-01T02:50:51.617Z,4.90
2023-04-01T02:53:24.295Z,4.60
2023-04-01T02:55:57.032Z,5.30
2023-04-01T02:58:29.156Z,6.60
2023-04-01T03:01:01.226Z,7.50
2023-04-01T03:03:33.381Z,15.40
2023-04-01T03:06:10.953Z,10.10
2023-04-01T03:08:43.491Z,7.40
2023-04-01T03:11:16.675Z,6.30
2023-04-01T03:13:48.709Z,4.80
2023-04-01T03:16:21.316Z,5.30
2023-04-01T03:18:54.451Z,6.40
2023-04-01T03:21:28.266Z,9.20
2023-04-01T03:24:01.099Z,9.60
2023-04-01T03:26:34.173Z,8.30
2023-04-01T03:29:06.631Z,6.10
2023-04-01T03:31:38.691Z,6.70
2023-04-01T03:34:10.982Z,6.50
2023-04-01T03:36:43.226Z,6.00
2023-04-01T03:39:15.561Z,7.10
2023-04-01T03:41:47.999Z,8.20
2023-04-01T03:44:19.993Z,6.60
2023-04-01T03:46:53.251Z,6.60
2023-04-01T03:49:25.512Z,5.60
2023-04-01T03:51:57.528Z,4.80
2023-04-01T03:54:29.663Z,4.30
2023-04-01T03:57:01.954Z,4.80
2023-04-01T03:59:34.290Z,4.70
2023-04-01T04:02:06.663Z,6.30
2023-04-01T04:04:39.179Z,4.40
2023-04-01T04:07:11.459Z,3.50
2023-04-01T04:10:11.401Z,4.30
2023-04-01T04:12:43.594Z,4.50
2023-04-01T04:15:16.258Z,4.70
2023-04-01T04:17:49.570Z,5.40
2023-04-01T04:20:21.977Z,5.80
2023-04-01T04:22:54.023Z,5.80
2023-04-01T04:25:26.184Z,5.50
2023-04-01T04:27:58.542Z,5.20
2023-04-01T04:30:30.740Z,7.70
2023-04-01T04:33:02.956Z,7.40
2023-04-01T04:35:35.436Z,5.30
2023-04-01T04:38:08.150Z,5.00
2023-04-01T04:40:41.935Z,4.30
2023-04-01T04:43:16.911Z,4.70
2023-04-01T04:45:49.368Z,4.20
2023-04-01T04:48:21.583Z,4.10
2023-04-01T04:50:55.018Z,4.10
2023-04-01T04:53:28.902Z,4.30
2023-04-01T04:56:01.029Z,4.50
2023-04-01T04:58:49.621Z,4.30
2023-04-01T05:03:56.005Z,5.80
2023-04-01T05:06:30.623Z,6.70
2023-04-01T05:09:02.709Z,6.10
2023-04-01T05:11:34.863Z,6.30
2023-04-01T05:14:06.956Z,4.80
2023-04-01T05:16:39.467Z,4.80
2023-04-01T05:19:11.602Z,4.10
2023-04-01T05:21:44.147Z,4.40
2023-04-01T05:24:16.551Z,4.80
2023-04-01T05:26:48.743Z,5.00
2023-04-01T05:29:21.198Z,4.80
2023-04-01T05:31:55.835Z,5.50
2023-04-01T05:34:28.027Z,5.90
2023-04-01T05:37:00.173Z,6.80
2023-04-01T05:39:32.721Z,7.40
2023-04-01T05:42:04.977Z,7.60
2023-04-01T05:44:37.700Z,8.30
2023-04-01T05:47:12.649Z,9.00
2023-04-01T05:49:44.736Z,6.80
2023-04-01T05:52:17.109Z,5.90
2023-04-01T05:54:49.218Z,4.60
2023-04-01T05:57:22.002Z,5.00
2023-04-01T05:59:54.194Z,4.20
2023-04-01T06:02:26.585Z,3.70
2023-04-01T06:05:13.485Z,4.00
2023-04-01T06:07:45.584Z,4.10
2023-04-01T06:10:19.629Z,5.00
2023-04-01T06:13:05.304Z,6.40
2023-04-01T06:15:49.557Z,6.40
2023-04-01T06:18:52.459Z,4.80
2023-04-01T06:21:53.806Z,5.10
2023-04-01T06:24:43.452Z,5.30
2023-04-01T06:27:26.700Z,6.00
2023-04-01T06:30:27.259Z,7.00
2023-04-01T06:33:22.418Z,8.50
2023-04-01T06:36:24.968Z,6.60
2023-04-01T06:39:20.106Z,3.40
2023-04-01T06:42:35.760Z,5.30
2023-04-01T06:45:27.645Z,4.90
2023-04-01T06:48:38.388Z,5.90
2023-04-01T06:51:49.475Z,5.10
2023-04-01T06:54:44.505Z,3.00
2023-04-01T06:57:42.073Z,3.20
2023-04-01T07:00:21.873Z,3.10
2023-04-01T07:03:03.762Z,3.20
2023-04-01T07:05:38.178Z,2.90
2023-04-01T07:08:16.092Z,2.80
2023-04-01T07:10:53.785Z,3.40
2023-04-01T07:13:48.432Z,2.70
2023-04-01T07:16:29.450Z,2.80
2023-04-01T07:19:07.974Z,2.40
2023-04-01T07:21:55.305Z,2.60
2023-04-01T07:24:39.959Z,2.70
2023-04-01T07:27:15.992Z,2.40
2023-04-01T07:29:49.431Z,1.80
2023-04-01T07:32:42.508Z,2.40
2023-04-01T07:35:26.105Z,1.60
2023-04-01T07:38:16.302Z,2.20
2023-04-01T07:41:00.150Z,2.20
2023-04-01T07:43:56.149Z,2.30
2023-04-01T07:46:48.978Z,1.90
2023-04-01T07:49:31.254Z,1.80
2023-04-01T07:52:08.551Z,1.70
2023-04-01T07:54:51.039Z,1.80
2023-04-01T07:57:27.839Z,1.70
2023-04-01T08:00:08.321Z,1.90
2023-04-01T08:03:19.339Z,1.90
2023-04-01T08:05:57.748Z,1.70
2023-04-01T08:08:40.386Z,1.40
2023-04-01T08:11:43.851Z,1.80
2023-04-01T08:14:47.808Z,1.70
2023-04-01T08:17:31.008Z,1.60
2023-04-01T08:20:20.391Z,2.40
2023-04-01T08:22:59.625Z,2.40
2023-04-01T08:25:40.077Z,1.50
2023-04-01T08:28:22.203Z,1.10
2023-04-01T08:33:30.152Z,1.30
2023-04-01T08:36:12.950Z,1.20
2023-04-01T08:38:51.527Z,1.20
2023-04-01T08:41:55.073Z,1.10
2023-04-01T08:45:17.186Z,1.60
2023-04-01T08:48:30.576Z,1.40
2023-04-01T08:51:32.270Z,1.80
2023-04-01T08:54:33.926Z,1.40
2023-04-01T08:57:15.592Z,1.60
2023-04-01T09:00:21.608Z,1.40
2023-04-01T09:03:45.752Z,2.00
2023-04-01T09:06:38.876Z,2.30
2023-04-01T09:09:46.883Z,1.80
2023-04-01T09:12:46.586Z,1.90
2023-04-01T09:15:44.695Z,2.00
2023-04-01T09:18:41.936Z,2.20
2023-04-01T09:21:34.348Z,1.70
2023-04-01T09:24:39.175Z,1.50
2023-04-01T09:27:20.472Z,1.70
2023-04-01T09:30:31.995Z,1.40
2023-04-01T09:33:39.429Z,1.80
2023-04-01T09:36:22.270Z,1.80
2023-04-01T09:39:02.220Z,1.40
2023-04-01T09:41:42.884Z,1.40
2023-04-01T09:47:39.779Z,2.10
2023-04-01T09:50:32.097Z,1.80
2023-04-01T09:53:20.950Z,1.80
2023-04-01T09:56:25.272Z,2.70
2023-04-01T09:59:41.268Z,2.10
2023-04-01T10:03:14.979Z,2.60
2023-04-01T10:06:12.075Z,2.00
2023-04-01T10:09:08.524Z,2.00
2023-04-01T10:12:10.304Z,1.80
2023-04-01T10:15:09.046Z,2.00
2023-04-01T10:18:09.155Z,1.40
2023-04-01T10:20:58.007Z,1.90
2023-04-01T10:23:53.462Z,1.80
2023-04-01T10:27:00.143Z,1.70
2023-04-01T10:30:07.628Z,1.90
2023-04-01T10:33:22.418Z,1.80
2023-04-01T10:36:26.409Z,2.10
2023-04-01T10:39:22.340Z,1.70
2023-04-01T10:42:31.595Z,1.90
2023-04-01T10:45:50.485Z,1.60
2023-04-01T10:48:53.190Z,2.10
2023-04-01T10:51:56.028Z,1.90
2023-04-01T10:54:51.698Z,2.10
2023-04-01T10:58:49.431Z,1.50
2023-04-01T11:02:18.868Z,2.00
2023-04-01T11:05:44.608Z,1.60
2023-04-01T11:08:58.070Z,1.60
2023-04-01T11:12:00.865Z,1.70
2023-04-01T11:15:07.257Z,1.70
2023-04-01T11:18:10.575Z,2.30
2023-04-01T11:21:12.339Z,1.40
2023-04-01T11:24:05.449Z,1.40
2023-04-01T11:26:55.040Z,1.80
2023-04-01T11:30:17.352Z,1.70
2023-04-01T11:32:57.082Z,1.80
2023-04-01T11:35:51.709Z,1.80
2023-04-01T11:38:47.249Z,2.10
2023-04-01T11:41:53.006Z,2.00
2023-04-01T11:45:09.781Z,2.00
2023-04-01T11:48:09.523Z,2.00
2023-04-01T11:51:01.125Z,1.90
2023-04-01T11:53:46.416Z,2.20
2023-04-01T11:56:31.319Z,2.40
2023-04-01T11:59:41.589Z,3.10
2023-04-01T12:02:21.183Z,2.50
2023-04-01T12:05:02.585Z,2.40
2023-04-01T12:08:02.838Z,2.50
2023-04-01T12:10:40.977Z,3.30
2023-04-01T12:13:27.013Z,3.60
2023-04-01T12:16:15.907Z,9.00
2023-04-01T12:18:54.842Z,4.90
2023-04-01T12:21:35.500Z,6.40
2023-04-01T12:24:35.593Z,9.30
2023-04-01T12:27:22.249Z,12.80
2023-04-01T12:30:20.477Z,12.10
2023-04-01T12:33:02.867Z,12.20
2023-04-01T12:35:47.481Z,6.50
2023-04-01T12:38:33.792Z,3.30
2023-04-01T12:41:17.638Z,3.70
2023-04-01T12:44:07.733Z,3.80
2023-04-01T12:46:56.727Z,16.10
2023-04-01T12:49:47.192Z,25.40
2023-04-01T12:52:28.005Z,15.00
2023-04-01T12:55:23.410Z,16.90
2023-04-01T12:58:19.982Z,28.70
2023-04-01T13:01:06.217Z,5.70
2023-04-01T13:03:55.612Z,11.40
2023-04-01T13:06:42.328Z,7.90
2023-04-01T13:09:27.381Z,7.90
2023-04-01T13:12:24.348Z,4.60
2023-04-01T13:15:14.656Z,5.10
2023-04-01T13:17:54.614Z,5.10
2023-04-01T13:20:39.295Z,7.70
2023-04-01T13:23:27.357Z,3.30
2023-04-01T13:28:56.138Z,4.40
2023-04-01T13:31:40.472Z,3.10
2023-04-01T13:34:28.160Z,3.80
2023-04-01T13:37:11.448Z,3.60
2023-04-01T13:39:59.610Z,3.90
2023-04-01T13:42:37.320Z,2.90
2023-04-01T13:45:18.950Z,3.90
2023-04-01T13:48:21.427Z,3.90
2023-04-01T13:51:17.353Z,5.10
2023-04-01T13:54:10.078Z,2.90
2023-04-01T13:56:50.685Z,2.80
2023-04-01T13:59:51.940Z,3.80
2023-04-01T14:02:49.654Z,3.30
2023-04-01T14:06:00.797Z,4.00
2023-04-01T14:08:51.354Z,2.90
2023-04-01T14:11:35.949Z,2.80
2023-04-01T14:14:23.881Z,2.90
2023-04-01T14:17:26.692Z,2.10
2023-04-01T14:20:24.997Z,2.50
2023-04-01T14:23:16.860Z,2.60
2023-04-01T14:26:17.372Z,1.70
2023-04-01T14:28:58.013Z,1.80
2023-04-01T14:31:40.400Z,1.70
2023-04-01T14:34:27.844Z,2.10
2023-04-01T14:37:25.437Z,2.50
2023-04-01T14:40:35.466Z,2.50
2023-04-01T14:43:57.107Z,2.20
2023-04-01T14:46:57.814Z,2.40
2023-04-01T14:49:36.503Z,2.10
2023-04-01T14:52:16.264Z,2.30
2023-04-01T14:54:51.948Z,2.40
2023-04-01T15:00:15.833Z,1.80
2023-04-01T15:03:00.986Z,2.30
2023-04-01T15:05:41.938Z,4.00
2023-04-01T15:08:22.493Z,3.70
2023-04-01T15:11:06.657Z,5.40
2023-04-01T15:14:24.245Z,4.70
2023-04-01T15:17:10.628Z,8.00
2023-04-01T15:19:59.913Z,6.40
2023-04-01T15:22:52.140Z,5.60
2023-04-01T15:25:47.723Z,4.80
2023-04-01T15:28:32.221Z,9.40
2023-04-01T15:31:12.545Z,4.50
2023-04-01T15:33:57.985Z,3.40
2023-04-01T15:36:41.616Z,11.20
2023-04-01T15:39:26.715Z,17.00
2023-04-01T15:42:22.135Z,31.40
2023-04-01T15:45:05.408Z,66.00
2023-04-01T15:47:43.607Z,33.70
2023-04-01T15:50:49.824Z,28.40
2023-04-01T15:53:39.818Z,62.80
2023-04-01T15:56:31.311Z,18.50
2023-04-01T15:59:16.637Z,13.80
2023-04-01T16:01:59.313Z,8.00
2023-04-01T16:04:49.070Z,13.30
2023-04-01T16:07:39.124Z,24.90
2023-04-01T16:10:39.012Z,13.20
2023-04-01T16:13:30.713Z,10.70
2023-04-01T16:16:13.658Z,9.40
2023-04-01T16:19:05.367Z,14.20
2023-04-01T16:21:47.078Z,11.60
2023-04-01T16:24:26.834Z,9.20
2023-04-01T16:27:05.295Z,9.40
2023-04-01T16:29:47.586Z,19.30
2023-04-01T16:32:31.058Z,15.10
2023-04-01T16:35:31.460Z,16.20
2023-04-01T16:38:11.528Z,20.50
2023-04-01T16:40:51.697Z,19.50
2023-04-01T16:43:31.382Z,26.10
2023-04-01T16:46:36.940Z,23.50
2023-04-01T16:49:26.760Z,15.30
2023-04-01T16:52:16.240Z,5.70
2023-04-01T16:54:59.405Z,5.20
2023-04-01T16:57:40.084Z,6.20
2023-04-01T17:00:25.112Z,6.80
2023-04-01T17:03:18.404Z,9.80
2023-04-01T17:06:04.580Z,11.10
2023-04-01T17:08:54.912Z,5.40
2023-04-01T17:11:30.198Z,4.00
2023-04-01T17:14:16.047Z,5.90
2023-04-01T17:17:09.679Z,3.40
2023-04-01T17:19:52.118Z,2.40
2023-04-01T17:22:34.756Z,4.00
2023-04-01T17:25:26.636Z,4.00
2023-04-01T17:28:06.327Z,3.90
2023-04-01T17:30:45.027Z,3.40
2023-04-01T17:33:45.554Z,3.60
2023-04-01T17:36:32.750Z,3.10
2023-04-01T17:39:32.890Z,3.30
2023-04-01T17:42:11.820Z,3.50
2023-04-01T17:44:54.551Z,4.30
2023-04-01T17:47:51.936Z,4.40
2023-04-01T17:50:31.963Z,4.40
2023-04-01T17:53:19.856Z,4.80
2023-04-01T17:56:05.743Z,4.80
2023-04-01T17:58:48.842Z,4.80
2023-04-01T18:01:32.803Z,5.10
2023-04-01T18:04:53.848Z,4.50
2023-04-01T18:07:51.254Z,4.30
2023-04-01T18:10:33.180Z,3.40
2023-04-01T18:15:56.347Z,4.70
2023-04-01T18:18:44.448Z,4.80
2023-04-01T18:21:28.084Z,4.90
2023-04-01T18:24:05.741Z,5.30
2023-04-01T18:26:41.067Z,5.80
2023-04-01T18:29:28.843Z,5.20
2023-04-01T18:32:30.139Z,5.10
2023-04-01T18:35:20.478Z,3.80
2023-04-01T18:37:57.435Z,3.60
2023-04-01T18:43:39.086Z,3.80
2023-04-01T18:46:22.170Z,13.30
2023-04-01T18:49:07.001Z,23.90
2023-04-01T18:51:55.084Z,8.70
2023-04-01T18:54:33.408Z,8.70
2023-04-01T18:57:15.044Z,9.60
2023-04-01T18:59:54.270Z,12.40
2023-04-01T19:02:35.135Z,11.50
2023-04-01T19:05:13.598Z,11.90
2023-04-01T19:07:50.719Z,9.70
2023-04-01T19:10:33.536Z,12.00
2023-04-01T19:13:19.111Z,10.10
2023-04-01T19:16:01.511Z,15.00
2023-04-01T19:19:04.432Z,11.10
2023-04-01T19:21:41.513Z,15.90
2023-04-01T19:24:38.418Z,15.60
2023-04-01T19:27:20.583Z,17.50
2023-04-01T19:30:04.962Z,14.40
2023-04-01T19:32:50.933Z,15.20
2023-04-01T19:35:32.556Z,12.80
2023-04-01T19:38:14.478Z,12.00
2023-04-01T19:40:55.727Z,12.40
2023-04-01T19:43:46.524Z,12.80
2023-04-01T19:46:26.962Z,13.90
2023-04-01T19:49:15.603Z,16.20
2023-04-01T19:51:53.788Z,13.20
2023-04-01T19:54:43.795Z,15.30
2023-04-01T19:57:25.207Z,14.60
2023-04-01T20:00:04.341Z,12.30
2023-04-01T20:02:56.168Z,11.10
2023-04-01T20:05:43.275Z,11.00
2023-04-01T20:08:29.341Z,10.00
2023-04-01T20:11:14.411Z,10.60
2023-04-01T20:13:56.248Z,10.80
2023-04-01T20:17:01.558Z,10.10
2023-04-01T20:19:41.807Z,9.80
2023-04-01T20:22:34.559Z,8.10
2023-04-01T20:25:14.928Z,9.80
2023-04-01T20:27:53.197Z,9.50
2023-04-01T20:30:49.774Z,10.00
2023-04-01T20:33:50.473Z,10.40
2023-04-01T20:39:17.836Z,9.90
2023-04-01T20:42:07.876Z,10.70
2023-04-01T20:44:49.059Z,12.20
2023-04-01T20:47:33.217Z,12.60
2023-04-01T20:50:22.599Z,13.20
2023-04-01T20:53:06.655Z,14.50
2023-04-01T20:56:15.569Z,13.30
2023-04-01T20:58:56.745Z,13.60
2023-04-01T21:01:42.912Z,13.50
2023-04-01T21:04:29.832Z,18.00
2023-04-01T21:07:19.451Z,19.30
2023-04-01T21:10:20.080Z,16.40
2023-04-01T21:12:58.908Z,13.40
2023-04-01T21:15:42.125Z,14.10
2023-04-01T21:18:37.697Z,15.20
2023-04-01T21:21:54.546Z,16.40
2023-04-01T21:25:05.810Z,15.50
2023-04-01T21:27:55.168Z,14.60
2023-04-01T21:30:44.733Z,14.20
2023-04-01T21:33:34.485Z,14.10
2023-04-01T21:36:20.942Z,14.80
2023-04-01T21:39:08.288Z,16.90
2023-04-01T21:42:00.032Z,16.70
2023-04-01T21:44:56.129Z,16.70
2023-04-01T21:48:04.660Z,20.10
2023-04-01T21:50:49.846Z,17.60
2023-04-01T21:53:56.041Z,17.30
2023-04-01T21:56:57.554Z,16.20
2023-04-01T22:00:00.278Z,14.00
2023-04-01T22:02:56.228Z,13.40
2023-04-01T22:05:33.963Z,12.60
2023-04-01T22:08:17.548Z,11.80
2023-04-01T22:11:00.115Z,11.20
2023-04-01T22:13:39.681Z,11.40
2023-04-01T22:16:19.494Z,10.70
2023-04-01T22:19:02.537Z,10.10
2023-04-01T22:21:41.744Z,9.90
2023-04-01T22:24:22.515Z,10.70
2023-04-01T22:27:03.225Z,10.90
2023-04-01T22:29:43.277Z,10.40
2023-04-01T22:32:23.961Z,9.60
2023-04-01T22:35:03.687Z,9.00
2023-04-01T22:37:47.887Z,9.90
2023-04-01T22:40:28.254Z,9.20
2023-04-01T22:43:05.722Z,9.00
2023-04-01T22:46:13.861Z,9.40
2023-04-01T22:48:53.133Z,9.00
2023-04-01T22:51:33.402Z,9.00
2023-04-01T22:54:16.024Z,8.20
2023-04-01T22:56:54.246Z,8.30
2023-04-01T22:59:34.006Z,9.00
2023-04-01T23:02:11.966Z,8.10
2023-04-01T23:04:50.432Z,8.80
2023-04-01T23:07:48.047Z,8.20
2023-04-01T23:10:27.497Z,9.40
2023-04-01T23:13:04.014Z,9.70
2023-04-01T23:15:38.322Z,13.10
2023-04-01T23:18:22.183Z,15.40
2023-04-01T23:21:05.755Z,16.50
2023-04-01T23:23:47.891Z,15.50
2023-04-01T23:26:26.180Z,11.50
2023-04-01T23:29:00.537Z,11.70
2023-04-01T23:31:36.729Z,10.70
2023-04-01T23:34:26.806Z,9.40
2023-04-01T23:37:03.032Z,10.00
2023-04-01T23:39:38.092Z,9.60
2023-04-01T23:42:15.725Z,8.50
2023-04-01T23:44:48.287Z,10.10
2023-04-01T23:47:23.420Z,9.70
2023-04-01T23:49:59.126Z,12.00
2023-04-01T23:52:37.222Z,11.70
2023-04-01T23:55:20.268Z,12.00
2023-04-01T23:58:16.476Z,12.10
